sensor_id;sensor_type;location;lat;lon;timestamp;temperature;humidity
74336;DHT22;62755;-33.398;-70.572;2022-11-11T00:00:27;18.20;51.50
74336;DHT22;62755;-33.398;-70.572;2022-11-11T00:02:57;18.20;51.70
74336;DHT22;62755;-33.398;-70.572;2022-11-11T00:05:27;18.10;52.10
74336;DHT22;62755;-33.398;-70.572;2022-11-11T00:07:57;18.00;52.20
74336;DHT22;62755;-33.398;-70.572;2022-11-11T00:10:27;18.10;52.20
74336;DHT22;62755;-33.398;-70.572;2022-11-11T00:13:01;18.20;52.00
74336;DHT22;62755;-33.398;-70.572;2022-11-11T00:15:34;18.20;52.40
74336;DHT22;62755;-33.398;-70.572;2022-11-11T00:18:04;18.10;52.10
74336;DHT22;62755;-33.398;-70.572;2022-11-11T00:20:53;18.10;52.20
74336;DHT22;62755;-33.398;-70.572;2022-11-11T00:23:39;18.10;52.30
74336;DHT22;62755;-33.398;-70.572;2022-11-11T00:26:26;18.00;52.50
74336;DHT22;62755;-33.398;-70.572;2022-11-11T00:28:58;18.10;52.50
74336;DHT22;62755;-33.398;-70.572;2022-11-11T00:31:28;18.10;52.50
74336;DHT22;62755;-33.398;-70.572;2022-11-11T00:33:57;18.00;52.70
74336;DHT22;62755;-33.398;-70.572;2022-11-11T00:36:27;18.00;52.70
74336;DHT22;62755;-33.398;-70.572;2022-11-11T00:38:55;18.00;52.70
74336;DHT22;62755;-33.398;-70.572;2022-11-11T00:41:25;18.10;52.50
74336;DHT22;62755;-33.398;-70.572;2022-11-11T00:43:56;18.10;52.30
74336;DHT22;62755;-33.398;-70.572;2022-11-11T00:46:26;18.10;52.30
74336;DHT22;62755;-33.398;-70.572;2022-11-11T00:49:13;18.00;52.20
74336;DHT22;62755;-33.398;-70.572;2022-11-11T00:52:10;18.10;52.60
74336;DHT22;62755;-33.398;-70.572;2022-11-11T00:54:40;18.00;52.50
74336;DHT22;62755;-33.398;-70.572;2022-11-11T00:57:09;18.00;52.60
74336;DHT22;62755;-33.398;-70.572;2022-11-11T00:59:41;18.00;52.60
74336;DHT22;62755;-33.398;-70.572;2022-11-11T01:02:10;18.00;52.70
74336;DHT22;62755;-33.398;-70.572;2022-11-11T01:04:40;18.00;52.60
74336;DHT22;62755;-33.398;-70.572;2022-11-11T01:07:09;18.00;52.60
74336;DHT22;62755;-33.398;-70.572;2022-11-11T01:09:39;18.00;52.70
74336;DHT22;62755;-33.398;-70.572;2022-11-11T01:12:09;17.90;52.70
74336;DHT22;62755;-33.398;-70.572;2022-11-11T01:14:41;17.80;52.80
74336;DHT22;62755;-33.398;-70.572;2022-11-11T01:17:11;17.80;53.00
74336;DHT22;62755;-33.398;-70.572;2022-11-11T01:19:40;17.80;52.90
74336;DHT22;62755;-33.398;-70.572;2022-11-11T01:22:10;17.80;53.10
74336;DHT22;62755;-33.398;-70.572;2022-11-11T01:24:40;17.80;53.00
74336;DHT22;62755;-33.398;-70.572;2022-11-11T01:27:09;17.80;53.00
74336;DHT22;62755;-33.398;-70.572;2022-11-11T01:29:41;17.80;52.90
74336;DHT22;62755;-33.398;-70.572;2022-11-11T01:32:10;17.80;53.20
74336;DHT22;62755;-33.398;-70.572;2022-11-11T01:34:40;17.80;53.20
74336;DHT22;62755;-33.398;-70.572;2022-11-11T01:37:09;17.70;53.40
74336;DHT22;62755;-33.398;-70.572;2022-11-11T01:39:39;17.60;53.50
74336;DHT22;62755;-33.398;-70.572;2022-11-11T01:42:09;17.60;53.70
74336;DHT22;62755;-33.398;-70.572;2022-11-11T01:44:45;17.50;53.80
74336;DHT22;62755;-33.398;-70.572;2022-11-11T01:47:16;17.40;54.50
74336;DHT22;62755;-33.398;-70.572;2022-11-11T01:49:51;17.30;54.30
74336;DHT22;62755;-33.398;-70.572;2022-11-11T01:52:24;17.30;54.70
74336;DHT22;62755;-33.398;-70.572;2022-11-11T01:54:57;17.40;54.50
74336;DHT22;62755;-33.398;-70.572;2022-11-11T01:57:33;17.30;54.30
74336;DHT22;62755;-33.398;-70.572;2022-11-11T02:00:09;17.30;54.70
74336;DHT22;62755;-33.398;-70.572;2022-11-11T02:02:44;17.20;54.60
74336;DHT22;62755;-33.398;-70.572;2022-11-11T02:05:17;17.20;54.80
74336;DHT22;62755;-33.398;-70.572;2022-11-11T02:08:06;17.20;54.60
74336;DHT22;62755;-33.398;-70.572;2022-11-11T02:10:39;17.30;54.60
74336;DHT22;62755;-33.398;-70.572;2022-11-11T02:13:13;17.30;54.50
74336;DHT22;62755;-33.398;-70.572;2022-11-11T02:16:01;17.20;54.70
74336;DHT22;62755;-33.398;-70.572;2022-11-11T02:18:32;17.20;54.80
74336;DHT22;62755;-33.398;-70.572;2022-11-11T02:21:02;17.20;54.70
74336;DHT22;62755;-33.398;-70.572;2022-11-11T02:23:36;17.20;54.40
74336;DHT22;62755;-33.398;-70.572;2022-11-11T02:26:09;17.20;54.60
74336;DHT22;62755;-33.398;-70.572;2022-11-11T02:28:40;17.30;54.50
74336;DHT22;62755;-33.398;-70.572;2022-11-11T02:31:09;17.40;54.40
74336;DHT22;62755;-33.398;-70.572;2022-11-11T02:33:39;17.40;54.30
74336;DHT22;62755;-33.398;-70.572;2022-11-11T02:36:10;17.40;54.40
74336;DHT22;62755;-33.398;-70.572;2022-11-11T02:38:43;17.50;54.30
74336;DHT22;62755;-33.398;-70.572;2022-11-11T02:41:15;17.50;54.20
74336;DHT22;62755;-33.398;-70.572;2022-11-11T02:44:01;17.50;54.20
74336;DHT22;62755;-33.398;-70.572;2022-11-11T02:46:30;17.50;54.00
74336;DHT22;62755;-33.398;-70.572;2022-11-11T02:49:00;17.50;54.10
74336;DHT22;62755;-33.398;-70.572;2022-11-11T02:51:29;17.50;54.10
74336;DHT22;62755;-33.398;-70.572;2022-11-11T02:53:59;17.50;54.00
74336;DHT22;62755;-33.398;-70.572;2022-11-11T02:56:30;17.50;54.00
74336;DHT22;62755;-33.398;-70.572;2022-11-11T02:59:16;17.50;54.10
74336;DHT22;62755;-33.398;-70.572;2022-11-11T03:01:48;17.50;54.10
74336;DHT22;62755;-33.398;-70.572;2022-11-11T03:04:17;17.50;54.10
74336;DHT22;62755;-33.398;-70.572;2022-11-11T03:06:47;17.50;54.10
74336;DHT22;62755;-33.398;-70.572;2022-11-11T03:09:16;17.50;54.20
74336;DHT22;62755;-33.398;-70.572;2022-11-11T03:11:48;17.40;54.30
74336;DHT22;62755;-33.398;-70.572;2022-11-11T03:14:18;17.20;54.70
74336;DHT22;62755;-33.398;-70.572;2022-11-11T03:16:47;17.20;54.60
74336;DHT22;62755;-33.398;-70.572;2022-11-11T03:19:33;17.30;54.30
74336;DHT22;62755;-33.398;-70.572;2022-11-11T03:22:03;17.30;54.30
74336;DHT22;62755;-33.398;-70.572;2022-11-11T03:24:33;17.20;54.50
74336;DHT22;62755;-33.398;-70.572;2022-11-11T03:27:21;17.20;54.50
74336;DHT22;62755;-33.398;-70.572;2022-11-11T03:29:50;17.20;54.40
74336;DHT22;62755;-33.398;-70.572;2022-11-11T03:32:20;17.20;54.30
74336;DHT22;62755;-33.398;-70.572;2022-11-11T03:34:49;17.20;54.30
74336;DHT22;62755;-33.398;-70.572;2022-11-11T03:37:19;17.10;54.60
74336;DHT22;62755;-33.398;-70.572;2022-11-11T03:40:06;17.00;54.80
74336;DHT22;62755;-33.398;-70.572;2022-11-11T03:42:38;17.00;55.00
74336;DHT22;62755;-33.398;-70.572;2022-11-11T03:45:09;17.00;55.00
74336;DHT22;62755;-33.398;-70.572;2022-11-11T03:47:39;17.00;55.10
74336;DHT22;62755;-33.398;-70.572;2022-11-11T03:50:09;17.00;55.10
74336;DHT22;62755;-33.398;-70.572;2022-11-11T03:52:41;17.00;55.00
74336;DHT22;62755;-33.398;-70.572;2022-11-11T03:55:11;17.00;55.00
74336;DHT22;62755;-33.398;-70.572;2022-11-11T03:57:44;16.90;55.00
74336;DHT22;62755;-33.398;-70.572;2022-11-11T04:00:15;16.80;55.40
74336;DHT22;62755;-33.398;-70.572;2022-11-11T04:02:46;16.80;55.50
74336;DHT22;62755;-33.398;-70.572;2022-11-11T04:05:32;16.80;55.30
74336;DHT22;62755;-33.398;-70.572;2022-11-11T04:08:19;16.80;55.40
74336;DHT22;62755;-33.398;-70.572;2022-11-11T04:11:07;16.90;55.40
74336;DHT22;62755;-33.398;-70.572;2022-11-11T04:13:40;16.90;55.30
74336;DHT22;62755;-33.398;-70.572;2022-11-11T04:16:27;16.80;55.50
74336;DHT22;62755;-33.398;-70.572;2022-11-11T04:18:56;16.70;55.70
74336;DHT22;62755;-33.398;-70.572;2022-11-11T04:21:42;16.60;56.10
74336;DHT22;62755;-33.398;-70.572;2022-11-11T04:24:13;16.60;56.10
74336;DHT22;62755;-33.398;-70.572;2022-11-11T04:27:00;16.50;56.10
74336;DHT22;62755;-33.398;-70.572;2022-11-11T04:29:32;16.50;56.10
74336;DHT22;62755;-33.398;-70.572;2022-11-11T04:32:00;16.60;56.20
74336;DHT22;62755;-33.398;-70.572;2022-11-11T04:34:47;16.60;56.10
74336;DHT22;62755;-33.398;-70.572;2022-11-11T04:37:18;16.70;56.00
74336;DHT22;62755;-33.398;-70.572;2022-11-11T04:39:49;16.70;56.00
74336;DHT22;62755;-33.398;-70.572;2022-11-11T04:42:34;16.70;56.00
74336;DHT22;62755;-33.398;-70.572;2022-11-11T04:45:09;16.70;56.70
74336;DHT22;62755;-33.398;-70.572;2022-11-11T04:47:57;16.70;56.30
74336;DHT22;62755;-33.398;-70.572;2022-11-11T04:50:28;16.70;56.00
74336;DHT22;62755;-33.398;-70.572;2022-11-11T04:52:58;16.70;56.20
74336;DHT22;62755;-33.398;-70.572;2022-11-11T04:55:29;16.70;56.10
74336;DHT22;62755;-33.398;-70.572;2022-11-11T04:58:16;16.70;56.20
74336;DHT22;62755;-33.398;-70.572;2022-11-11T05:00:47;16.60;56.30
74336;DHT22;62755;-33.398;-70.572;2022-11-11T05:03:17;16.60;56.50
74336;DHT22;62755;-33.398;-70.572;2022-11-11T05:05:48;16.50;56.50
74336;DHT22;62755;-33.398;-70.572;2022-11-11T05:08:36;16.50;56.70
74336;DHT22;62755;-33.398;-70.572;2022-11-11T05:11:25;16.60;56.70
74336;DHT22;62755;-33.398;-70.572;2022-11-11T05:13:56;16.70;56.50
74336;DHT22;62755;-33.398;-70.572;2022-11-11T05:16:45;16.70;56.40
74336;DHT22;62755;-33.398;-70.572;2022-11-11T05:19:32;16.70;56.40
74336;DHT22;62755;-33.398;-70.572;2022-11-11T05:22:20;16.60;56.40
74336;DHT22;62755;-33.398;-70.572;2022-11-11T05:24:51;16.60;56.50
74336;DHT22;62755;-33.398;-70.572;2022-11-11T05:27:36;16.50;56.60
74336;DHT22;62755;-33.398;-70.572;2022-11-11T05:30:07;16.40;57.40
74336;DHT22;62755;-33.398;-70.572;2022-11-11T05:32:39;16.40;57.10
74336;DHT22;62755;-33.398;-70.572;2022-11-11T05:35:09;16.40;57.00
74336;DHT22;62755;-33.398;-70.572;2022-11-11T05:37:40;16.40;56.80
74336;DHT22;62755;-33.398;-70.572;2022-11-11T05:40:11;16.50;56.90
74336;DHT22;62755;-33.398;-70.572;2022-11-11T05:42:43;16.50;56.80
74336;DHT22;62755;-33.398;-70.572;2022-11-11T05:45:13;16.50;56.90
74336;DHT22;62755;-33.398;-70.572;2022-11-11T05:47:44;16.50;56.60
74336;DHT22;62755;-33.398;-70.572;2022-11-11T05:50:14;16.50;56.70
74336;DHT22;62755;-33.398;-70.572;2022-11-11T05:52:47;16.50;56.70
74336;DHT22;62755;-33.398;-70.572;2022-11-11T05:55:17;16.60;56.70
74336;DHT22;62755;-33.398;-70.572;2022-11-11T05:57:47;16.60;56.50
74336;DHT22;62755;-33.398;-70.572;2022-11-11T06:00:17;16.60;56.40
74336;DHT22;62755;-33.398;-70.572;2022-11-11T06:02:49;16.50;56.60
74336;DHT22;62755;-33.398;-70.572;2022-11-11T06:05:18;16.50;56.70
74336;DHT22;62755;-33.398;-70.572;2022-11-11T06:07:48;16.50;56.50
74336;DHT22;62755;-33.398;-70.572;2022-11-11T06:10:20;16.50;56.70
74336;DHT22;62755;-33.398;-70.572;2022-11-11T06:13:00;16.60;56.60
74336;DHT22;62755;-33.398;-70.572;2022-11-11T06:15:39;16.60;56.40
74336;DHT22;62755;-33.398;-70.572;2022-11-11T06:18:11;16.60;56.40
74336;DHT22;62755;-33.398;-70.572;2022-11-11T06:20:40;16.60;56.40
74336;DHT22;62755;-33.398;-70.572;2022-11-11T06:23:10;16.70;56.20
74336;DHT22;62755;-33.398;-70.572;2022-11-11T06:25:40;16.70;56.10
74336;DHT22;62755;-33.398;-70.572;2022-11-11T06:28:26;16.50;56.30
74336;DHT22;62755;-33.398;-70.572;2022-11-11T06:30:56;16.40;56.50
74336;DHT22;62755;-33.398;-70.572;2022-11-11T06:33:27;16.40;56.80
74336;DHT22;62755;-33.398;-70.572;2022-11-11T06:35:57;16.40;56.90
74336;DHT22;62755;-33.398;-70.572;2022-11-11T06:38:26;16.40;56.80
74336;DHT22;62755;-33.398;-70.572;2022-11-11T06:40:56;16.40;56.70
74336;DHT22;62755;-33.398;-70.572;2022-11-11T06:43:25;16.40;56.60
74336;DHT22;62755;-33.398;-70.572;2022-11-11T06:45:55;16.40;56.80
74336;DHT22;62755;-33.398;-70.572;2022-11-11T06:48:28;16.40;56.80
74336;DHT22;62755;-33.398;-70.572;2022-11-11T06:51:02;16.40;56.90
74336;DHT22;62755;-33.398;-70.572;2022-11-11T06:53:32;16.30;57.50
74336;DHT22;62755;-33.398;-70.572;2022-11-11T06:56:02;16.20;57.40
74336;DHT22;62755;-33.398;-70.572;2022-11-11T06:58:33;16.10;57.50
74336;DHT22;62755;-33.398;-70.572;2022-11-11T07:01:04;16.10;57.70
74336;DHT22;62755;-33.398;-70.572;2022-11-11T07:03:36;16.00;58.00
74336;DHT22;62755;-33.398;-70.572;2022-11-11T07:06:06;16.00;58.20
74336;DHT22;62755;-33.398;-70.572;2022-11-11T07:08:36;16.00;58.20
74336;DHT22;62755;-33.398;-70.572;2022-11-11T07:11:05;15.90;58.40
74336;DHT22;62755;-33.398;-70.572;2022-11-11T07:13:35;15.80;58.70
74336;DHT22;62755;-33.398;-70.572;2022-11-11T07:16:05;15.80;58.70
74336;DHT22;62755;-33.398;-70.572;2022-11-11T07:18:37;15.80;58.70
74336;DHT22;62755;-33.398;-70.572;2022-11-11T07:21:07;15.90;58.90
74336;DHT22;62755;-33.398;-70.572;2022-11-11T07:23:37;15.80;58.70
74336;DHT22;62755;-33.398;-70.572;2022-11-11T07:26:06;15.80;58.80
74336;DHT22;62755;-33.398;-70.572;2022-11-11T07:28:36;15.80;59.00
74336;DHT22;62755;-33.398;-70.572;2022-11-11T07:31:05;15.80;59.00
74336;DHT22;62755;-33.398;-70.572;2022-11-11T07:33:37;15.70;59.10
74336;DHT22;62755;-33.398;-70.572;2022-11-11T07:36:07;15.60;59.50
74336;DHT22;62755;-33.398;-70.572;2022-11-11T07:38:36;15.60;59.70
74336;DHT22;62755;-33.398;-70.572;2022-11-11T07:41:06;15.60;59.70
74336;DHT22;62755;-33.398;-70.572;2022-11-11T07:43:36;15.80;59.50
74336;DHT22;62755;-33.398;-70.572;2022-11-11T07:46:05;15.80;59.40
74336;DHT22;62755;-33.398;-70.572;2022-11-11T07:48:35;15.70;59.60
74336;DHT22;62755;-33.398;-70.572;2022-11-11T07:51:06;15.60;60.00
74336;DHT22;62755;-33.398;-70.572;2022-11-11T07:53:36;15.60;60.40
74336;DHT22;62755;-33.398;-70.572;2022-11-11T07:56:06;15.60;60.00
74336;DHT22;62755;-33.398;-70.572;2022-11-11T07:58:36;15.60;60.00
74336;DHT22;62755;-33.398;-70.572;2022-11-11T08:01:06;15.40;60.80
74336;DHT22;62755;-33.398;-70.572;2022-11-11T08:03:36;15.30;61.00
74336;DHT22;62755;-33.398;-70.572;2022-11-11T08:06:18;15.40;61.10
74336;DHT22;62755;-33.398;-70.572;2022-11-11T08:08:48;15.30;61.10
74336;DHT22;62755;-33.398;-70.572;2022-11-11T08:11:18;15.40;61.00
74336;DHT22;62755;-33.398;-70.572;2022-11-11T08:14:07;15.40;61.00
74336;DHT22;62755;-33.398;-70.572;2022-11-11T08:16:36;15.30;61.40
74336;DHT22;62755;-33.398;-70.572;2022-11-11T08:19:06;15.30;61.20
74336;DHT22;62755;-33.398;-70.572;2022-11-11T08:21:37;15.30;61.30
74336;DHT22;62755;-33.398;-70.572;2022-11-11T08:24:07;15.40;61.50
74336;DHT22;62755;-33.398;-70.572;2022-11-11T08:26:37;15.40;61.40
74336;DHT22;62755;-33.398;-70.572;2022-11-11T08:29:06;15.40;61.30
74336;DHT22;62755;-33.398;-70.572;2022-11-11T08:31:36;15.50;61.30
74336;DHT22;62755;-33.398;-70.572;2022-11-11T08:34:05;15.60;60.90
74336;DHT22;62755;-33.398;-70.572;2022-11-11T08:36:37;15.70;60.60
74336;DHT22;62755;-33.398;-70.572;2022-11-11T08:39:07;15.70;60.50
74336;DHT22;62755;-33.398;-70.572;2022-11-11T08:41:36;15.60;60.50
74336;DHT22;62755;-33.398;-70.572;2022-11-11T08:44:06;15.60;60.70
74336;DHT22;62755;-33.398;-70.572;2022-11-11T08:46:36;15.60;60.80
74336;DHT22;62755;-33.398;-70.572;2022-11-11T08:49:05;15.60;60.70
74336;DHT22;62755;-33.398;-70.572;2022-11-11T08:51:35;15.60;60.70
74336;DHT22;62755;-33.398;-70.572;2022-11-11T08:54:06;15.60;60.90
74336;DHT22;62755;-33.398;-70.572;2022-11-11T08:56:36;15.60;61.00
74336;DHT22;62755;-33.398;-70.572;2022-11-11T08:59:06;15.50;61.10
74336;DHT22;62755;-33.398;-70.572;2022-11-11T09:01:36;15.40;61.60
74336;DHT22;62755;-33.398;-70.572;2022-11-11T09:04:05;15.50;61.50
74336;DHT22;62755;-33.398;-70.572;2022-11-11T09:06:35;15.60;61.20
74336;DHT22;62755;-33.398;-70.572;2022-11-11T09:09:07;15.60;61.00
74336;DHT22;62755;-33.398;-70.572;2022-11-11T09:11:37;15.60;61.10
74336;DHT22;62755;-33.398;-70.572;2022-11-11T09:14:06;15.60;61.00
74336;DHT22;62755;-33.398;-70.572;2022-11-11T09:16:36;15.60;61.00
74336;DHT22;62755;-33.398;-70.572;2022-11-11T09:19:05;15.60;61.00
74336;DHT22;62755;-33.398;-70.572;2022-11-11T09:21:35;15.60;61.20
74336;DHT22;62755;-33.398;-70.572;2022-11-11T09:24:07;15.60;61.30
74336;DHT22;62755;-33.398;-70.572;2022-11-11T09:26:36;15.60;61.30
74336;DHT22;62755;-33.398;-70.572;2022-11-11T09:29:06;15.50;61.20
74336;DHT22;62755;-33.398;-70.572;2022-11-11T09:31:35;15.50;61.50
74336;DHT22;62755;-33.398;-70.572;2022-11-11T09:34:05;15.50;61.60
74336;DHT22;62755;-33.398;-70.572;2022-11-11T09:36:35;15.50;61.40
74336;DHT22;62755;-33.398;-70.572;2022-11-11T09:39:06;15.50;61.60
74336;DHT22;62755;-33.398;-70.572;2022-11-11T09:41:46;15.40;61.80
74336;DHT22;62755;-33.398;-70.572;2022-11-11T09:44:27;15.50;62.20
74336;DHT22;62755;-33.398;-70.572;2022-11-11T09:47:07;15.60;61.80
74336;DHT22;62755;-33.398;-70.572;2022-11-11T09:49:56;15.60;61.40
74336;DHT22;62755;-33.398;-70.572;2022-11-11T09:52:30;15.50;61.90
74336;DHT22;62755;-33.398;-70.572;2022-11-11T09:55:05;15.40;61.90
74336;DHT22;62755;-33.398;-70.572;2022-11-11T09:57:44;15.40;62.10
74336;DHT22;62755;-33.398;-70.572;2022-11-11T10:00:18;15.50;61.90
74336;DHT22;62755;-33.398;-70.572;2022-11-11T10:02:51;15.50;61.80
74336;DHT22;62755;-33.398;-70.572;2022-11-11T10:05:25;15.60;61.50
74336;DHT22;62755;-33.398;-70.572;2022-11-11T10:07:58;15.60;61.60
74336;DHT22;62755;-33.398;-70.572;2022-11-11T10:10:37;15.70;61.20
74336;DHT22;62755;-33.398;-70.572;2022-11-11T10:13:13;15.60;61.40
74336;DHT22;62755;-33.398;-70.572;2022-11-11T10:15:54;15.60;61.20
74336;DHT22;62755;-33.398;-70.572;2022-11-11T10:18:43;15.60;61.70
74336;DHT22;62755;-33.398;-70.572;2022-11-11T10:21:22;15.50;62.30
74336;DHT22;62755;-33.398;-70.572;2022-11-11T10:23:53;15.60;61.90
74336;DHT22;62755;-33.398;-70.572;2022-11-11T10:26:30;15.60;61.50
74336;DHT22;62755;-33.398;-70.572;2022-11-11T10:29:08;15.50;62.00
74336;DHT22;62755;-33.398;-70.572;2022-11-11T10:31:41;15.40;61.70
74336;DHT22;62755;-33.398;-70.572;2022-11-11T10:34:12;15.50;61.80
74336;DHT22;62755;-33.398;-70.572;2022-11-11T10:36:47;15.50;61.80
74336;DHT22;62755;-33.398;-70.572;2022-11-11T10:39:23;15.50;61.70
74336;DHT22;62755;-33.398;-70.572;2022-11-11T10:41:56;15.60;61.40
74336;DHT22;62755;-33.398;-70.572;2022-11-11T10:44:27;15.40;61.80
74336;DHT22;62755;-33.398;-70.572;2022-11-11T10:47:02;15.30;62.10
74336;DHT22;62755;-33.398;-70.572;2022-11-11T10:49:35;15.20;62.60
74336;DHT22;62755;-33.398;-70.572;2022-11-11T10:52:11;15.10;62.70
74336;DHT22;62755;-33.398;-70.572;2022-11-11T10:54:49;15.00;62.70
74336;DHT22;62755;-33.398;-70.572;2022-11-11T10:57:28;15.20;62.90
74336;DHT22;62755;-33.398;-70.572;2022-11-11T11:00:02;15.30;62.60
74336;DHT22;62755;-33.398;-70.572;2022-11-11T11:02:41;15.40;62.40
74336;DHT22;62755;-33.398;-70.572;2022-11-11T11:05:18;15.40;62.20
74336;DHT22;62755;-33.398;-70.572;2022-11-11T11:07:51;15.50;61.80
74336;DHT22;62755;-33.398;-70.572;2022-11-11T11:10:26;15.60;61.60
74336;DHT22;62755;-33.398;-70.572;2022-11-11T11:13:04;15.60;61.60
74336;DHT22;62755;-33.398;-70.572;2022-11-11T11:15:37;15.60;61.50
74336;DHT22;62755;-33.398;-70.572;2022-11-11T11:18:10;15.60;61.40
74336;DHT22;62755;-33.398;-70.572;2022-11-11T11:20:55;15.60;61.50
74336;DHT22;62755;-33.398;-70.572;2022-11-11T11:23:38;15.40;62.10
74336;DHT22;62755;-33.398;-70.572;2022-11-11T11:26:08;15.30;62.40
74336;DHT22;62755;-33.398;-70.572;2022-11-11T11:28:55;15.40;62.00
74336;DHT22;62755;-33.398;-70.572;2022-11-11T11:31:35;15.40;62.20
74336;DHT22;62755;-33.398;-70.572;2022-11-11T11:34:05;15.50;62.50
74336;DHT22;62755;-33.398;-70.572;2022-11-11T11:36:35;15.60;62.00
74336;DHT22;62755;-33.398;-70.572;2022-11-11T11:39:04;15.60;61.60
74336;DHT22;62755;-33.398;-70.572;2022-11-11T11:41:38;15.70;61.30
74336;DHT22;62755;-33.398;-70.572;2022-11-11T11:44:27;15.70;61.30
74336;DHT22;62755;-33.398;-70.572;2022-11-11T11:47:12;15.80;61.20
74336;DHT22;62755;-33.398;-70.572;2022-11-11T11:52:48;15.60;61.20
74336;DHT22;62755;-33.398;-70.572;2022-11-11T11:55:23;15.60;61.30
74336;DHT22;62755;-33.398;-70.572;2022-11-11T11:58:02;15.60;61.40
74336;DHT22;62755;-33.398;-70.572;2022-11-11T12:00:42;15.60;61.40
74336;DHT22;62755;-33.398;-70.572;2022-11-11T12:06:24;15.60;61.30
74336;DHT22;62755;-33.398;-70.572;2022-11-11T12:09:02;15.60;61.00
74336;DHT22;62755;-33.398;-70.572;2022-11-11T12:11:41;15.70;61.10
74336;DHT22;62755;-33.398;-70.572;2022-11-11T12:17:25;15.80;61.00
74336;DHT22;62755;-33.398;-70.572;2022-11-11T12:20:01;15.80;60.70
74336;DHT22;62755;-33.398;-70.572;2022-11-11T12:22:43;15.80;60.70
74336;DHT22;62755;-33.398;-70.572;2022-11-11T12:25:19;15.80;60.70
74336;DHT22;62755;-33.398;-70.572;2022-11-11T12:27:57;15.80;60.70
74336;DHT22;62755;-33.398;-70.572;2022-11-11T12:30:31;15.90;60.30
74336;DHT22;62755;-33.398;-70.572;2022-11-11T12:33:38;15.80;60.30
74336;DHT22;62755;-33.398;-70.572;2022-11-11T12:36:14;15.80;60.40
74336;DHT22;62755;-33.398;-70.572;2022-11-11T12:38:51;15.80;60.50
74336;DHT22;62755;-33.398;-70.572;2022-11-11T12:41:39;15.80;60.50
74336;DHT22;62755;-33.398;-70.572;2022-11-11T12:44:13;15.80;60.50
74336;DHT22;62755;-33.398;-70.572;2022-11-11T12:46:52;16.00;59.90
74336;DHT22;62755;-33.398;-70.572;2022-11-11T12:49:52;16.10;59.40
74336;DHT22;62755;-33.398;-70.572;2022-11-11T12:52:35;16.10;59.00
74336;DHT22;62755;-33.398;-70.572;2022-11-11T12:55:20;16.20;59.20
74336;DHT22;62755;-33.398;-70.572;2022-11-11T12:58:12;16.20;59.10
74336;DHT22;62755;-33.398;-70.572;2022-11-11T13:00:55;16.20;59.10
74336;DHT22;62755;-33.398;-70.572;2022-11-11T13:03:39;16.20;58.90
74336;DHT22;62755;-33.398;-70.572;2022-11-11T13:06:34;16.20;58.90
74336;DHT22;62755;-33.398;-70.572;2022-11-11T13:12:09;16.30;58.60
74336;DHT22;62755;-33.398;-70.572;2022-11-11T13:14:52;16.20;58.50
74336;DHT22;62755;-33.398;-70.572;2022-11-11T13:17:24;16.20;58.40
74336;DHT22;62755;-33.398;-70.572;2022-11-11T13:19:56;16.20;58.60
74336;DHT22;62755;-33.398;-70.572;2022-11-11T13:22:29;16.20;58.60
74336;DHT22;62755;-33.398;-70.572;2022-11-11T13:25:02;16.10;59.00
74336;DHT22;62755;-33.398;-70.572;2022-11-11T13:27:37;16.20;58.70
74336;DHT22;62755;-33.398;-70.572;2022-11-11T13:30:45;16.30;58.50
74336;DHT22;62755;-33.398;-70.572;2022-11-11T13:33:19;16.40;57.90
74336;DHT22;62755;-33.398;-70.572;2022-11-11T13:35:52;16.50;57.80
74336;DHT22;62755;-33.398;-70.572;2022-11-11T13:38:32;16.60;57.50
74336;DHT22;62755;-33.398;-70.572;2022-11-11T13:41:04;16.70;57.00
74336;DHT22;62755;-33.398;-70.572;2022-11-11T13:43:39;16.80;57.10
74336;DHT22;62755;-33.398;-70.572;2022-11-11T13:46:31;16.80;56.80
74336;DHT22;62755;-33.398;-70.572;2022-11-11T13:49:02;16.90;56.20
74336;DHT22;62755;-33.398;-70.572;2022-11-11T13:51:37;17.00;56.50
74336;DHT22;62755;-33.398;-70.572;2022-11-11T13:54:22;17.00;56.20
74336;DHT22;62755;-33.398;-70.572;2022-11-11T13:56:53;17.00;56.10
74336;DHT22;62755;-33.398;-70.572;2022-11-11T13:59:31;17.10;56.10
74336;DHT22;62755;-33.398;-70.572;2022-11-11T14:02:29;17.20;55.80
74336;DHT22;62755;-33.398;-70.572;2022-11-11T14:05:20;17.40;55.00
74336;DHT22;62755;-33.398;-70.572;2022-11-11T14:07:53;17.50;54.70
74336;DHT22;62755;-33.398;-70.572;2022-11-11T14:10:59;17.60;54.80
74336;DHT22;62755;-33.398;-70.572;2022-11-11T14:13:39;17.90;53.50
74336;DHT22;62755;-33.398;-70.572;2022-11-11T14:16:12;18.10;53.40
74336;DHT22;62755;-33.398;-70.572;2022-11-11T14:19:27;18.20;52.70
74336;DHT22;62755;-33.398;-70.572;2022-11-11T14:21:58;18.40;52.20
74336;DHT22;62755;-33.398;-70.572;2022-11-11T14:24:35;18.50;51.80
74336;DHT22;62755;-33.398;-70.572;2022-11-11T14:27:16;18.50;51.90
74336;DHT22;62755;-33.398;-70.572;2022-11-11T14:29:49;18.60;51.80
74336;DHT22;62755;-33.398;-70.572;2022-11-11T14:32:35;18.70;51.80
74336;DHT22;62755;-33.398;-70.572;2022-11-11T14:35:18;18.80;50.70
74336;DHT22;62755;-33.398;-70.572;2022-11-11T14:38:17;18.80;50.50
74336;DHT22;62755;-33.398;-70.572;2022-11-11T14:40:49;18.90;49.70
74336;DHT22;62755;-33.398;-70.572;2022-11-11T14:43:36;18.90;50.40
74336;DHT22;62755;-33.398;-70.572;2022-11-11T14:46:10;19.10;49.20
74336;DHT22;62755;-33.398;-70.572;2022-11-11T14:48:57;19.10;49.30
74336;DHT22;62755;-33.398;-70.572;2022-11-11T14:51:56;19.10;49.00
74336;DHT22;62755;-33.398;-70.572;2022-11-11T14:54:36;19.00;48.50
74336;DHT22;62755;-33.398;-70.572;2022-11-11T14:57:18;19.00;48.60
74336;DHT22;62755;-33.398;-70.572;2022-11-11T14:59:51;19.00;48.60
74336;DHT22;62755;-33.398;-70.572;2022-11-11T15:02:29;19.10;48.90
74336;DHT22;62755;-33.398;-70.572;2022-11-11T15:05:00;19.20;47.90
74336;DHT22;62755;-33.398;-70.572;2022-11-11T15:10:56;19.30;48.00
74336;DHT22;62755;-33.398;-70.572;2022-11-11T15:13:54;19.30;47.70
74336;DHT22;62755;-33.398;-70.572;2022-11-11T15:16:39;19.30;48.10
74336;DHT22;62755;-33.398;-70.572;2022-11-11T15:19:24;19.40;48.00
74336;DHT22;62755;-33.398;-70.572;2022-11-11T15:22:08;19.50;47.90
74336;DHT22;62755;-33.398;-70.572;2022-11-11T15:24:45;19.60;47.40
74336;DHT22;62755;-33.398;-70.572;2022-11-11T15:27:26;19.70;47.10
74336;DHT22;62755;-33.398;-70.572;2022-11-11T15:30:02;19.70;47.50
74336;DHT22;62755;-33.398;-70.572;2022-11-11T15:32:43;19.80;47.40
74336;DHT22;62755;-33.398;-70.572;2022-11-11T15:35:32;19.90;46.50
74336;DHT22;62755;-33.398;-70.572;2022-11-11T15:38:05;20.00;46.20
74336;DHT22;62755;-33.398;-70.572;2022-11-11T15:40:44;19.90;46.00
74336;DHT22;62755;-33.398;-70.572;2022-11-11T15:43:19;19.80;46.30
74336;DHT22;62755;-33.398;-70.572;2022-11-11T15:45:51;19.70;46.50
74336;DHT22;62755;-33.398;-70.572;2022-11-11T15:48:26;19.70;46.70
74336;DHT22;62755;-33.398;-70.572;2022-11-11T15:50:56;19.80;46.60